SYD weather

Sydney Kingsford Smith International Airport
Sydney, New South Wales, Australia

Public forecast

Using degrees Celsius for public forecast. Weather courtesy of forecast.io.

Current aviation weather report (METAR) for Sydney Kingsford Smith International Airport

Retrieved 2019/11/22 19:30 UTC (3 minutes ago):

YSSY 221930Z 21009KT 9000 SCT011 BKN016 19/17 Q1015 FM2200 23008KT 8000 FU SCT020

Aviation forecast (TAF) for Sydney Kingsford Smith International Airport

Retrieved 2019/11/22 18:00 UTC (2 hours ago):

TAF YSSY 221637Z 2218/2400 21008KT 7000 FU BKN015 FM222200 23008KT 7000 FU SCT020 FM230100 12010KT 8000 FU SCT020 FM230600 14012KT 9000 FU BKN018 FM231200 16013KT 8000 FU BKN015 FM232200 15012KT 9000 FU BKN020 PROB30 2218/2301 5000 FU PROB30 2312/2318 5000 FU